Rindge, NH (03461)

12:15 AM EST on December 04, 2016 (GMT -0500)
Converse Meadow Pond | | Change Station

Elev 1091 ft 42.74 °N, 71.98 °W | Updated 41 seconds ago

Overcast
Overcast
31.3 °F
Feels Like 27 °F
N
4.6
Wind Variable Wind from WNW
Gusts 4.6 mph

Today
High -- | Low -- °F
--% Chance of Precip.
Yesterday
High -- | Low -- °F
Precip. -- in
Pressure 30.09 in
Visibility 10.0 miles
Clouds Overcast 3600 ft
Windchill 27 °F
Dew Point 24 °F
Humidity 73%
Rainfall 0.00 in
Snow Depth Not available.
7:02 AM 4:14 PM
Waxing Crescent, 20% visible
METAR KAFN 040452Z AUTO VRB06G14KT 10SM OVC036 00/M08 A3004 RMK AO2 SLP187 T00001078 400391006
Pressure 30.09 in
Visibility 10.0 miles
Clouds Overcast 3600 ft
Windchill 27 °F
Dew Point 24 °F
Humidity 73%
Rainfall 0.00 in
Snow Depth Not available.
7:02 AM 4:14 PM
Waxing Crescent, 20% visible
METAR KAFN 040452Z AUTO VRB06G14KT 10SM OVC036 00/M08 A3004 RMK AO2 SLP187 T00001078 400391006

10-Day Weather Forecast

Almanac

Astronomy

Dec. 04, 2016 Rise Set
Actual Time
Civil Twilight
Nautical Twilight
Astronomical Twilight
Moon
Length of Visible Light
Length of Day
Tomorrow will be .
, % of the Moon is Illuminated

Today's Extremes

State Highs State Lows

Community

WunderPhotos

Upload Photos

1,955,585 photos uploaded!

WunderBlog® & News

Nearby

Air Quality

  Air Quality AQ Index Pollutant
Not available.

Snow Depth

Station Depth Elevation

Earthquake Activity

City Distance Mag. Time & Date
Minimum magnitude displayed is 2.5.

Coastal Water Temperatures

Place Temperature

Stations

Nearby Weather Stations

Station Location Temp. Windchill Dew Point Humidity Wind Precip. Elev Updated Type
                   

Watches & Warnings

There are currently no watches in effect.